sensor_id;sensor_type;location;lat;lon;timestamp;P1;durP1;ratioP1;P2;durP2;ratioP2
23586;SDS011;11971;51.148;4.104;2023-03-05T00:00:27;68.55;;;33.17;;
23586;SDS011;11971;51.148;4.104;2023-03-05T00:02:54;67.47;;;32.55;;
23586;SDS011;11971;51.148;4.104;2023-03-05T00:05:20;65.70;;;32.50;;
23586;SDS011;11971;51.148;4.104;2023-03-05T00:07:48;66.82;;;32.65;;
23586;SDS011;11971;51.148;4.104;2023-03-05T00:10:15;67.28;;;32.38;;
23586;SDS011;11971;51.148;4.104;2023-03-05T00:12:42;67.10;;;32.70;;
23586;SDS011;11971;51.148;4.104;2023-03-05T00:15:09;63.92;;;32.10;;
23586;SDS011;11971;51.148;4.104;2023-03-05T00:17:36;63.92;;;31.85;;
23586;SDS011;11971;51.148;4.104;2023-03-05T00:20:02;65.43;;;32.28;;
23586;SDS011;11971;51.148;4.104;2023-03-05T00:22:29;67.75;;;32.45;;
23586;SDS011;11971;51.148;4.104;2023-03-05T00:24:57;65.80;;;32.28;;
23586;SDS011;11971;51.148;4.104;2023-03-05T00:27:24;66.70;;;32.70;;
23586;SDS011;11971;51.148;4.104;2023-03-05T00:29:51;63.60;;;31.77;;
23586;SDS011;11971;51.148;4.104;2023-03-05T00:32:17;67.65;;;32.63;;
23586;SDS011;11971;51.148;4.104;2023-03-05T00:34:44;64.65;;;32.03;;
23586;SDS011;11971;51.148;4.104;2023-03-05T00:37:11;64.95;;;32.45;;
23586;SDS011;11971;51.148;4.104;2023-03-05T00:39:37;66.93;;;32.67;;
23586;SDS011;11971;51.148;4.104;2023-03-05T00:42:06;67.57;;;32.33;;
23586;SDS011;11971;51.148;4.104;2023-03-05T00:44:33;65.38;;;32.47;;
23586;SDS011;11971;51.148;4.104;2023-03-05T00:46:59;65.75;;;32.08;;
23586;SDS011;11971;51.148;4.104;2023-03-05T00:49:26;64.88;;;32.13;;
23586;SDS011;11971;51.148;4.104;2023-03-05T00:51:52;64.38;;;32.35;;
23586;SDS011;11971;51.148;4.104;2023-03-05T00:54:19;65.15;;;32.50;;
23586;SDS011;11971;51.148;4.104;2023-03-05T00:56:46;64.80;;;32.33;;
23586;SDS011;11971;51.148;4.104;2023-03-05T00:59:14;66.28;;;32.50;;
23586;SDS011;11971;51.148;4.104;2023-03-05T01:01:41;64.93;;;32.20;;
23586;SDS011;11971;51.148;4.104;2023-03-05T01:04:07;67.63;;;32.13;;
23586;SDS011;11971;51.148;4.104;2023-03-05T01:06:34;69.32;;;32.45;;
23586;SDS011;11971;51.148;4.104;2023-03-05T01:09:03;64.07;;;32.05;;
23586;SDS011;11971;51.148;4.104;2023-03-05T01:11:29;65.53;;;32.40;;
23586;SDS011;11971;51.148;4.104;2023-03-05T01:13:56;66.35;;;32.00;;
23586;SDS011;11971;51.148;4.104;2023-03-05T01:16:24;64.85;;;32.35;;
23586;SDS011;11971;51.148;4.104;2023-03-05T01:18:51;67.23;;;32.03;;
23586;SDS011;11971;51.148;4.104;2023-03-05T01:21:17;67.32;;;33.38;;
23586;SDS011;11971;51.148;4.104;2023-03-05T01:23:45;63.22;;;32.17;;
23586;SDS011;11971;51.148;4.104;2023-03-05T01:26:12;63.35;;;32.17;;
23586;SDS011;11971;51.148;4.104;2023-03-05T01:28:39;63.70;;;32.33;;
23586;SDS011;11971;51.148;4.104;2023-03-05T01:31:06;68.07;;;33.22;;
23586;SDS011;11971;51.148;4.104;2023-03-05T01:33:34;65.38;;;32.80;;
23586;SDS011;11971;51.148;4.104;2023-03-05T01:36:01;66.10;;;32.70;;
23586;SDS011;11971;51.148;4.104;2023-03-05T01:38:30;70.55;;;33.08;;
23586;SDS011;11971;51.148;4.104;2023-03-05T01:40:57;65.85;;;33.28;;
23586;SDS011;11971;51.148;4.104;2023-03-05T01:43:24;66.80;;;33.03;;
23586;SDS011;11971;51.148;4.104;2023-03-05T01:48:50;64.78;;;31.95;;
23586;SDS011;11971;51.148;4.104;2023-03-05T01:51:18;62.70;;;31.92;;
23586;SDS011;11971;51.148;4.104;2023-03-05T01:53:45;62.92;;;32.17;;
23586;SDS011;11971;51.148;4.104;2023-03-05T01:56:12;65.18;;;32.10;;
23586;SDS011;11971;51.148;4.104;2023-03-05T01:58:39;63.33;;;32.03;;
23586;SDS011;11971;51.148;4.104;2023-03-05T02:01:06;66.20;;;32.45;;
23586;SDS011;11971;51.148;4.104;2023-03-05T02:03:32;65.30;;;32.67;;
23586;SDS011;11971;51.148;4.104;2023-03-05T02:06:01;63.42;;;32.30;;
23586;SDS011;11971;51.148;4.104;2023-03-05T02:08:28;66.97;;;32.38;;
23586;SDS011;11971;51.148;4.104;2023-03-05T02:10:54;63.75;;;31.88;;
23586;SDS011;11971;51.148;4.104;2023-03-05T02:13:22;67.38;;;32.00;;
23586;SDS011;11971;51.148;4.104;2023-03-05T02:15:50;63.15;;;32.15;;
23586;SDS011;11971;51.148;4.104;2023-03-05T02:18:20;64.03;;;32.08;;
23586;SDS011;11971;51.148;4.104;2023-03-05T02:20:48;65.88;;;32.50;;
23586;SDS011;11971;51.148;4.104;2023-03-05T02:23:17;63.47;;;31.58;;
23586;SDS011;11971;51.148;4.104;2023-03-05T02:25:46;63.40;;;31.77;;
23586;SDS011;11971;51.148;4.104;2023-03-05T02:28:14;64.45;;;31.83;;
23586;SDS011;11971;51.148;4.104;2023-03-05T02:30:42;61.33;;;31.45;;
23586;SDS011;11971;51.148;4.104;2023-03-05T02:33:08;64.03;;;32.47;;
23586;SDS011;11971;51.148;4.104;2023-03-05T02:35:35;65.20;;;32.65;;
23586;SDS011;11971;51.148;4.104;2023-03-05T02:38:02;63.65;;;32.05;;
23586;SDS011;11971;51.148;4.104;2023-03-05T02:40:30;64.78;;;31.98;;
23586;SDS011;11971;51.148;4.104;2023-03-05T02:42:57;66.97;;;32.17;;
23586;SDS011;11971;51.148;4.104;2023-03-05T02:45:23;64.30;;;32.50;;
23586;SDS011;11971;51.148;4.104;2023-03-05T02:47:50;65.15;;;32.65;;
23586;SDS011;11971;51.148;4.104;2023-03-05T02:50:17;63.92;;;32.63;;
23586;SDS011;11971;51.148;4.104;2023-03-05T02:52:43;69.68;;;33.25;;
23586;SDS011;11971;51.148;4.104;2023-03-05T02:55:10;66.97;;;33.20;;
23586;SDS011;11971;51.148;4.104;2023-03-05T02:57:38;67.22;;;32.80;;
23586;SDS011;11971;51.148;4.104;2023-03-05T03:00:05;65.00;;;32.83;;
23586;SDS011;11971;51.148;4.104;2023-03-05T03:02:32;65.68;;;33.10;;
23586;SDS011;11971;51.148;4.104;2023-03-05T03:04:59;65.20;;;33.05;;
23586;SDS011;11971;51.148;4.104;2023-03-05T03:07:26;66.35;;;33.45;;
23586;SDS011;11971;51.148;4.104;2023-03-05T03:09:52;67.78;;;32.58;;
23586;SDS011;11971;51.148;4.104;2023-03-05T03:12:19;67.97;;;33.28;;
23586;SDS011;11971;51.148;4.104;2023-03-05T03:14:47;64.28;;;32.55;;
23586;SDS011;11971;51.148;4.104;2023-03-05T03:17:15;68.40;;;33.50;;
23586;SDS011;11971;51.148;4.104;2023-03-05T03:19:43;68.80;;;33.33;;
23586;SDS011;11971;51.148;4.104;2023-03-05T03:22:11;66.82;;;33.85;;
23586;SDS011;11971;51.148;4.104;2023-03-05T03:24:39;66.13;;;33.30;;
23586;SDS011;11971;51.148;4.104;2023-03-05T03:27:06;71.50;;;34.10;;
23586;SDS011;11971;51.148;4.104;2023-03-05T03:29:33;66.95;;;33.53;;
23586;SDS011;11971;51.148;4.104;2023-03-05T03:32:01;71.32;;;34.08;;
23586;SDS011;11971;51.148;4.104;2023-03-05T03:34:28;66.80;;;33.67;;
23586;SDS011;11971;51.148;4.104;2023-03-05T03:36:55;67.50;;;34.05;;
23586;SDS011;11971;51.148;4.104;2023-03-05T03:39:22;70.10;;;33.95;;
23586;SDS011;11971;51.148;4.104;2023-03-05T03:41:50;67.55;;;34.00;;
23586;SDS011;11971;51.148;4.104;2023-03-05T03:44:17;65.15;;;33.42;;
23586;SDS011;11971;51.148;4.104;2023-03-05T03:46:45;67.40;;;33.90;;
23586;SDS011;11971;51.148;4.104;2023-03-05T03:49:15;69.53;;;34.65;;
23586;SDS011;11971;51.148;4.104;2023-03-05T03:51:43;73.72;;;35.03;;
23586;SDS011;11971;51.148;4.104;2023-03-05T03:54:09;67.13;;;33.97;;
23586;SDS011;11971;51.148;4.104;2023-03-05T03:56:36;71.05;;;34.30;;
23586;SDS011;11971;51.148;4.104;2023-03-05T03:59:03;70.40;;;34.67;;
23586;SDS011;11971;51.148;4.104;2023-03-05T04:01:29;69.10;;;35.38;;
23586;SDS011;11971;51.148;4.104;2023-03-05T04:03:56;70.80;;;35.60;;
23586;SDS011;11971;51.148;4.104;2023-03-05T04:06:24;68.78;;;35.00;;
23586;SDS011;11971;51.148;4.104;2023-03-05T04:08:52;68.55;;;35.30;;
23586;SDS011;11971;51.148;4.104;2023-03-05T04:11:18;70.70;;;34.92;;
23586;SDS011;11971;51.148;4.104;2023-03-05T04:13:45;76.53;;;35.15;;
23586;SDS011;11971;51.148;4.104;2023-03-05T04:16:12;69.60;;;34.75;;
23586;SDS011;11971;51.148;4.104;2023-03-05T04:18:39;72.30;;;35.20;;
23586;SDS011;11971;51.148;4.104;2023-03-05T04:21:06;72.47;;;34.53;;
23586;SDS011;11971;51.148;4.104;2023-03-05T04:23:34;68.35;;;33.70;;
23586;SDS011;11971;51.148;4.104;2023-03-05T04:26:01;68.07;;;34.37;;
23586;SDS011;11971;51.148;4.104;2023-03-05T04:28:27;73.35;;;34.58;;
23586;SDS011;11971;51.148;4.104;2023-03-05T04:30:54;65.40;;;34.10;;
23586;SDS011;11971;51.148;4.104;2023-03-05T04:33:20;66.05;;;33.80;;
23586;SDS011;11971;51.148;4.104;2023-03-05T04:35:47;68.70;;;34.40;;
23586;SDS011;11971;51.148;4.104;2023-03-05T04:38:14;66.38;;;34.03;;
23586;SDS011;11971;51.148;4.104;2023-03-05T04:40:43;72.00;;;34.58;;
23586;SDS011;11971;51.148;4.104;2023-03-05T04:43:10;69.57;;;34.65;;
23586;SDS011;11971;51.148;4.104;2023-03-05T04:45:37;69.20;;;34.22;;
23586;SDS011;11971;51.148;4.104;2023-03-05T04:48:05;69.60;;;34.57;;
23586;SDS011;11971;51.148;4.104;2023-03-05T04:50:31;69.60;;;34.47;;
23586;SDS011;11971;51.148;4.104;2023-03-05T04:52:58;70.53;;;34.45;;
23586;SDS011;11971;51.148;4.104;2023-03-05T04:55:25;70.55;;;34.60;;
23586;SDS011;11971;51.148;4.104;2023-03-05T04:57:54;69.63;;;34.65;;
23586;SDS011;11971;51.148;4.104;2023-03-05T05:00:21;67.00;;;34.20;;
23586;SDS011;11971;51.148;4.104;2023-03-05T05:02:48;70.38;;;34.78;;
23586;SDS011;11971;51.148;4.104;2023-03-05T05:05:16;77.80;;;35.13;;
23586;SDS011;11971;51.148;4.104;2023-03-05T05:07:44;73.07;;;35.25;;
23586;SDS011;11971;51.148;4.104;2023-03-05T05:10:11;73.03;;;35.92;;
23586;SDS011;11971;51.148;4.104;2023-03-05T05:12:39;70.22;;;35.45;;
23586;SDS011;11971;51.148;4.104;2023-03-05T05:15:08;73.25;;;36.92;;
23586;SDS011;11971;51.148;4.104;2023-03-05T05:17:36;71.50;;;35.58;;
23586;SDS011;11971;51.148;4.104;2023-03-05T05:20:03;72.53;;;35.95;;
23586;SDS011;11971;51.148;4.104;2023-03-05T05:22:32;71.45;;;35.00;;
23586;SDS011;11971;51.148;4.104;2023-03-05T05:24:59;72.47;;;36.08;;
23586;SDS011;11971;51.148;4.104;2023-03-05T05:27:25;72.60;;;35.55;;
23586;SDS011;11971;51.148;4.104;2023-03-05T05:29:52;74.10;;;36.05;;
23586;SDS011;11971;51.148;4.104;2023-03-05T05:32:21;77.35;;;36.33;;
23586;SDS011;11971;51.148;4.104;2023-03-05T05:34:52;78.78;;;36.38;;
23586;SDS011;11971;51.148;4.104;2023-03-05T05:37:19;73.85;;;35.35;;
23586;SDS011;11971;51.148;4.104;2023-03-05T05:39:46;74.88;;;35.45;;
23586;SDS011;11971;51.148;4.104;2023-03-05T05:42:14;73.73;;;36.20;;
23586;SDS011;11971;51.148;4.104;2023-03-05T05:44:41;74.00;;;36.85;;
23586;SDS011;11971;51.148;4.104;2023-03-05T05:47:08;75.93;;;37.08;;
23586;SDS011;11971;51.148;4.104;2023-03-05T05:49:36;74.93;;;37.47;;
23586;SDS011;11971;51.148;4.104;2023-03-05T05:52:02;76.50;;;37.87;;
23586;SDS011;11971;51.148;4.104;2023-03-05T05:54:29;76.05;;;36.92;;
23586;SDS011;11971;51.148;4.104;2023-03-05T05:56:56;73.75;;;37.10;;
23586;SDS011;11971;51.148;4.104;2023-03-05T05:59:23;71.88;;;36.55;;
23586;SDS011;11971;51.148;4.104;2023-03-05T06:01:49;73.70;;;36.83;;
23586;SDS011;11971;51.148;4.104;2023-03-05T06:04:16;72.00;;;36.58;;
23586;SDS011;11971;51.148;4.104;2023-03-05T06:06:44;77.07;;;37.92;;
23586;SDS011;11971;51.148;4.104;2023-03-05T06:09:11;73.68;;;37.30;;
23586;SDS011;11971;51.148;4.104;2023-03-05T06:11:37;71.70;;;37.15;;
23586;SDS011;11971;51.148;4.104;2023-03-05T06:14:04;76.55;;;38.03;;
23586;SDS011;11971;51.148;4.104;2023-03-05T06:16:31;76.47;;;37.38;;
23586;SDS011;11971;51.148;4.104;2023-03-05T06:18:59;71.55;;;36.17;;
23586;SDS011;11971;51.148;4.104;2023-03-05T06:21:28;76.22;;;37.28;;
23586;SDS011;11971;51.148;4.104;2023-03-05T06:23:56;75.45;;;37.47;;
23586;SDS011;11971;51.148;4.104;2023-03-05T06:26:23;77.25;;;37.42;;
23586;SDS011;11971;51.148;4.104;2023-03-05T06:28:50;72.82;;;36.97;;
23586;SDS011;11971;51.148;4.104;2023-03-05T06:31:18;74.18;;;37.20;;
23586;SDS011;11971;51.148;4.104;2023-03-05T06:33:46;74.75;;;37.92;;
23586;SDS011;11971;51.148;4.104;2023-03-05T06:36:14;75.03;;;37.17;;
23586;SDS011;11971;51.148;4.104;2023-03-05T06:38:42;76.97;;;38.25;;
23586;SDS011;11971;51.148;4.104;2023-03-05T06:41:11;76.22;;;37.40;;
23586;SDS011;11971;51.148;4.104;2023-03-05T06:43:39;71.60;;;37.25;;
23586;SDS011;11971;51.148;4.104;2023-03-05T06:46:07;74.70;;;36.28;;
23586;SDS011;11971;51.148;4.104;2023-03-05T06:48:35;72.90;;;36.03;;
23586;SDS011;11971;51.148;4.104;2023-03-05T06:51:02;71.97;;;35.60;;
23586;SDS011;11971;51.148;4.104;2023-03-05T06:53:29;77.57;;;36.08;;
23586;SDS011;11971;51.148;4.104;2023-03-05T06:55:55;71.85;;;35.45;;
23586;SDS011;11971;51.148;4.104;2023-03-05T06:58:24;71.60;;;35.40;;
23586;SDS011;11971;51.148;4.104;2023-03-05T07:00:50;72.57;;;35.00;;
23586;SDS011;11971;51.148;4.104;2023-03-05T07:03:17;69.93;;;35.00;;
23586;SDS011;11971;51.148;4.104;2023-03-05T07:05:43;70.40;;;35.20;;
23586;SDS011;11971;51.148;4.104;2023-03-05T07:08:10;70.05;;;35.25;;
23586;SDS011;11971;51.148;4.104;2023-03-05T07:10:37;72.68;;;36.15;;
23586;SDS011;11971;51.148;4.104;2023-03-05T07:13:04;73.63;;;35.90;;
23586;SDS011;11971;51.148;4.104;2023-03-05T07:15:33;73.55;;;36.38;;
23586;SDS011;11971;51.148;4.104;2023-03-05T07:18:00;76.72;;;36.97;;
23586;SDS011;11971;51.148;4.104;2023-03-05T07:20:27;76.22;;;36.72;;
23586;SDS011;11971;51.148;4.104;2023-03-05T07:22:54;74.68;;;36.00;;
23586;SDS011;11971;51.148;4.104;2023-03-05T07:25:21;76.65;;;36.55;;
23586;SDS011;11971;51.148;4.104;2023-03-05T07:27:48;75.30;;;36.88;;
23586;SDS011;11971;51.148;4.104;2023-03-05T07:30:15;72.50;;;35.80;;
23586;SDS011;11971;51.148;4.104;2023-03-05T07:32:43;72.20;;;36.13;;
23586;SDS011;11971;51.148;4.104;2023-03-05T07:35:10;72.20;;;36.10;;
23586;SDS011;11971;51.148;4.104;2023-03-05T07:37:37;74.43;;;35.25;;
23586;SDS011;11971;51.148;4.104;2023-03-05T07:40:04;63.17;;;32.10;;
23586;SDS011;11971;51.148;4.104;2023-03-05T07:42:31;63.47;;;32.03;;
23586;SDS011;11971;51.148;4.104;2023-03-05T07:44:58;64.82;;;32.45;;
23586;SDS011;11971;51.148;4.104;2023-03-05T07:47:26;59.13;;;31.00;;
23586;SDS011;11971;51.148;4.104;2023-03-05T07:49:56;62.93;;;32.43;;
23586;SDS011;11971;51.148;4.104;2023-03-05T07:52:22;59.65;;;31.13;;
23586;SDS011;11971;51.148;4.104;2023-03-05T07:54:49;58.70;;;30.60;;
23586;SDS011;11971;51.148;4.104;2023-03-05T07:57:16;69.93;;;33.92;;
23586;SDS011;11971;51.148;4.104;2023-03-05T07:59:42;61.55;;;31.70;;
23586;SDS011;11971;51.148;4.104;2023-03-05T08:02:09;62.97;;;31.85;;
23586;SDS011;11971;51.148;4.104;2023-03-05T08:04:36;64.22;;;33.42;;
23586;SDS011;11971;51.148;4.104;2023-03-05T08:07:04;63.28;;;32.55;;
23586;SDS011;11971;51.148;4.104;2023-03-05T08:09:30;63.20;;;32.72;;
23586;SDS011;11971;51.148;4.104;2023-03-05T08:11:57;66.00;;;32.15;;
23586;SDS011;11971;51.148;4.104;2023-03-05T08:14:24;60.60;;;30.85;;
23586;SDS011;11971;51.148;4.104;2023-03-05T08:16:50;67.47;;;32.92;;
23586;SDS011;11971;51.148;4.104;2023-03-05T08:19:17;62.72;;;32.42;;
23586;SDS011;11971;51.148;4.104;2023-03-05T08:21:45;64.65;;;32.72;;
23586;SDS011;11971;51.148;4.104;2023-03-05T08:24:13;64.47;;;32.75;;
23586;SDS011;11971;51.148;4.104;2023-03-05T08:26:40;65.00;;;33.33;;
23586;SDS011;11971;51.148;4.104;2023-03-05T08:29:08;65.82;;;33.22;;
23586;SDS011;11971;51.148;4.104;2023-03-05T08:31:35;64.38;;;32.70;;
23586;SDS011;11971;51.148;4.104;2023-03-05T08:34:03;65.18;;;32.70;;
23586;SDS011;11971;51.148;4.104;2023-03-05T08:36:30;64.57;;;32.92;;
23586;SDS011;11971;51.148;4.104;2023-03-05T08:38:57;66.47;;;32.33;;
23586;SDS011;11971;51.148;4.104;2023-03-05T08:41:26;65.22;;;32.95;;
23586;SDS011;11971;51.148;4.104;2023-03-05T08:43:53;63.70;;;32.70;;
23586;SDS011;11971;51.148;4.104;2023-03-05T08:46:19;65.28;;;32.55;;
23586;SDS011;11971;51.148;4.104;2023-03-05T08:48:46;63.33;;;32.33;;
23586;SDS011;11971;51.148;4.104;2023-03-05T08:51:13;67.45;;;33.00;;
23586;SDS011;11971;51.148;4.104;2023-03-05T08:53:41;65.07;;;32.90;;
23586;SDS011;11971;51.148;4.104;2023-03-05T08:56:09;64.97;;;32.08;;
23586;SDS011;11971;51.148;4.104;2023-03-05T08:58:37;65.55;;;32.88;;
23586;SDS011;11971;51.148;4.104;2023-03-05T09:01:04;70.17;;;32.73;;
23586;SDS011;11971;51.148;4.104;2023-03-05T09:03:31;66.15;;;32.90;;
23586;SDS011;11971;51.148;4.104;2023-03-05T09:05:58;70.07;;;33.20;;
23586;SDS011;11971;51.148;4.104;2023-03-05T09:08:26;65.45;;;32.65;;
23586;SDS011;11971;51.148;4.104;2023-03-05T09:10:53;64.88;;;32.55;;
23586;SDS011;11971;51.148;4.104;2023-03-05T09:13:19;66.43;;;32.67;;
23586;SDS011;11971;51.148;4.104;2023-03-05T09:15:53;65.93;;;32.15;;
23586;SDS011;11971;51.148;4.104;2023-03-05T09:18:20;64.18;;;32.08;;
23586;SDS011;11971;51.148;4.104;2023-03-05T09:20:47;65.65;;;32.05;;
23586;SDS011;11971;51.148;4.104;2023-03-05T09:23:14;68.68;;;32.75;;
23586;SDS011;11971;51.148;4.104;2023-03-05T09:25:42;67.25;;;32.45;;
23586;SDS011;11971;51.148;4.104;2023-03-05T09:28:08;69.37;;;33.10;;
23586;SDS011;11971;51.148;4.104;2023-03-05T09:30:35;63.72;;;31.65;;
23586;SDS011;11971;51.148;4.104;2023-03-05T09:33:03;65.00;;;32.05;;
23586;SDS011;11971;51.148;4.104;2023-03-05T09:35:32;66.55;;;33.17;;
23586;SDS011;11971;51.148;4.104;2023-03-05T09:38:00;65.45;;;32.58;;
23586;SDS011;11971;51.148;4.104;2023-03-05T09:40:29;68.95;;;34.35;;
23586;SDS011;11971;51.148;4.104;2023-03-05T09:43:01;72.20;;;34.97;;
23586;SDS011;11971;51.148;4.104;2023-03-05T09:45:31;67.25;;;32.80;;
23586;SDS011;11971;51.148;4.104;2023-03-05T09:50:48;66.63;;;32.92;;
23586;SDS011;11971;51.148;4.104;2023-03-05T09:53:21;66.05;;;32.92;;
23586;SDS011;11971;51.148;4.104;2023-03-05T09:55:51;67.28;;;32.40;;
23586;SDS011;11971;51.148;4.104;2023-03-05T09:58:21;68.05;;;32.25;;
23586;SDS011;11971;51.148;4.104;2023-03-05T10:00:52;66.75;;;32.90;;
23586;SDS011;11971;51.148;4.104;2023-03-05T10:03:21;64.90;;;32.22;;
23586;SDS011;11971;51.148;4.104;2023-03-05T10:06:03;67.47;;;32.67;;
23586;SDS011;11971;51.148;4.104;2023-03-05T10:08:41;66.20;;;32.97;;
23586;SDS011;11971;51.148;4.104;2023-03-05T10:11:17;69.93;;;33.17;;
23586;SDS011;11971;51.148;4.104;2023-03-05T10:13:56;66.53;;;32.92;;
23586;SDS011;11971;51.148;4.104;2023-03-05T10:19:35;67.35;;;32.97;;
23586;SDS011;11971;51.148;4.104;2023-03-05T10:22:23;66.75;;;33.47;;
23586;SDS011;11971;51.148;4.104;2023-03-05T10:24:55;69.35;;;33.20;;
23586;SDS011;11971;51.148;4.104;2023-03-05T10:27:32;70.22;;;33.35;;
23586;SDS011;11971;51.148;4.104;2023-03-05T10:30:12;68.82;;;33.35;;
23586;SDS011;11971;51.148;4.104;2023-03-05T10:32:52;64.35;;;31.58;;
23586;SDS011;11971;51.148;4.104;2023-03-05T10:35:22;68.18;;;32.95;;
23586;SDS011;11971;51.148;4.104;2023-03-05T10:40:45;67.47;;;33.15;;
23586;SDS011;11971;51.148;4.104;2023-03-05T10:43:15;68.68;;;32.78;;
23586;SDS011;11971;51.148;4.104;2023-03-05T10:45:47;73.88;;;35.05;;
23586;SDS011;11971;51.148;4.104;2023-03-05T10:48:19;74.50;;;34.40;;
23586;SDS011;11971;51.148;4.104;2023-03-05T10:50:53;72.30;;;34.85;;
23586;SDS011;11971;51.148;4.104;2023-03-05T10:53:24;74.97;;;36.25;;
23586;SDS011;11971;51.148;4.104;2023-03-05T10:55:53;71.93;;;34.45;;
23586;SDS011;11971;51.148;4.104;2023-03-05T10:58:22;70.87;;;34.30;;
23586;SDS011;11971;51.148;4.104;2023-03-05T11:01:00;71.93;;;34.80;;
23586;SDS011;11971;51.148;4.104;2023-03-05T11:03:44;66.75;;;32.72;;
23586;SDS011;11971;51.148;4.104;2023-03-05T11:06:14;69.60;;;33.58;;
23586;SDS011;11971;51.148;4.104;2023-03-05T11:08:42;64.30;;;31.63;;
23586;SDS011;11971;51.148;4.104;2023-03-05T11:11:10;63.85;;;31.25;;
23586;SDS011;11971;51.148;4.104;2023-03-05T11:13:50;64.05;;;31.63;;
23586;SDS011;11971;51.148;4.104;2023-03-05T11:16:20;65.72;;;32.08;;
23586;SDS011;11971;51.148;4.104;2023-03-05T11:18:48;66.43;;;32.08;;
23586;SDS011;11971;51.148;4.104;2023-03-05T11:21:19;65.68;;;31.88;;
23586;SDS011;11971;51.148;4.104;2023-03-05T11:24:03;64.07;;;31.42;;
23586;SDS011;11971;51.148;4.104;2023-03-05T11:26:31;63.92;;;31.27;;
23586;SDS011;11971;51.148;4.104;2023-03-05T11:29:00;65.70;;;31.80;;
23586;SDS011;11971;51.148;4.104;2023-03-05T11:31:29;65.13;;;31.65;;
23586;SDS011;11971;51.148;4.104;2023-03-05T11:33:57;65.85;;;31.63;;
23586;SDS011;11971;51.148;4.104;2023-03-05T11:38:54;64.57;;;31.25;;
23586;SDS011;11971;51.148;4.104;2023-03-05T11:41:25;64.63;;;31.17;;
23586;SDS011;11971;51.148;4.104;2023-03-05T11:43:54;69.88;;;32.55;;
23586;SDS011;11971;51.148;4.104;2023-03-05T11:46:21;70.45;;;32.67;;
23586;SDS011;11971;51.148;4.104;2023-03-05T11:48:49;65.25;;;31.50;;
23586;SDS011;11971;51.148;4.104;2023-03-05T11:51:18;66.40;;;32.03;;
23586;SDS011;11971;51.148;4.104;2023-03-05T11:53:46;68.03;;;32.20;;
23586;SDS011;11971;51.148;4.104;2023-03-05T11:56:18;64.88;;;31.52;;
23586;SDS011;11971;51.148;4.104;2023-03-05T11:58:49;63.65;;;31.23;;
23586;SDS011;11971;51.148;4.104;2023-03-05T12:01:20;72.80;;;32.45;;
23586;SDS011;11971;51.148;4.104;2023-03-05T12:03:51;63.05;;;30.98;;
23586;SDS011;11971;51.148;4.104;2023-03-05T12:06:21;63.10;;;31.00;;
23586;SDS011;11971;51.148;4.104;2023-03-05T12:08:52;68.22;;;31.40;;
23586;SDS011;11971;51.148;4.104;2023-03-05T12:11:22;64.25;;;31.63;;
23586;SDS011;11971;51.148;4.104;2023-03-05T12:16:51;66.38;;;31.52;;
23586;SDS011;11971;51.148;4.104;2023-03-05T12:19:25;62.97;;;30.95;;
23586;SDS011;11971;51.148;4.104;2023-03-05T12:21:57;68.20;;;31.67;;
23586;SDS011;11971;51.148;4.104;2023-03-05T12:24:31;67.13;;;31.40;;
23586;SDS011;11971;51.148;4.104;2023-03-05T12:29:59;65.78;;;31.73;;
23586;SDS011;11971;51.148;4.104;2023-03-05T12:35:33;63.15;;;30.75;;
23586;SDS011;11971;51.148;4.104;2023-03-05T12:40:45;62.53;;;30.58;;
23586;SDS011;11971;51.148;4.104;2023-03-05T12:43:26;61.58;;;30.70;;
23586;SDS011;11971;51.148;4.104;2023-03-05T12:46:00;61.05;;;30.38;;
23586;SDS011;11971;51.148;4.104;2023-03-05T12:48:50;60.20;;;30.50;;
23586;SDS011;11971;51.148;4.104;2023-03-05T12:51:30;61.58;;;30.80;;
23586;SDS011;11971;51.148;4.104;2023-03-05T12:54:22;60.05;;;30.15;;
23586;SDS011;11971;51.148;4.104;2023-03-05T12:56:53;59.65;;;29.80;;
23586;SDS011;11971;51.148;4.104;2023-03-05T12:59:22;60.47;;;30.02;;
23586;SDS011;11971;51.148;4.104;2023-03-05T13:01:51;61.15;;;30.48;;
23586;SDS011;11971;51.148;4.104;2023-03-05T13:04:22;60.70;;;30.15;;
23586;SDS011;11971;51.148;4.104;2023-03-05T13:06:57;62.78;;;30.80;;
23586;SDS011;11971;51.148;4.104;2023-03-05T13:09:25;63.55;;;30.80;;
23586;SDS011;11971;51.148;4.104;2023-03-05T13:11:55;64.43;;;31.42;;
23586;SDS011;11971;51.148;4.104;2023-03-05T13:14:33;62.08;;;30.63;;
23586;SDS011;11971;51.148;4.104;2023-03-05T13:17:02;63.75;;;31.25;;
23586;SDS011;11971;51.148;4.104;2023-03-05T13:19:58;66.07;;;31.65;;
23586;SDS011;11971;51.148;4.104;2023-03-05T13:22:30;63.40;;;31.10;;
23586;SDS011;11971;51.148;4.104;2023-03-05T13:25:11;66.35;;;31.77;;
23586;SDS011;11971;51.148;4.104;2023-03-05T13:27:39;64.35;;;31.52;;
23586;SDS011;11971;51.148;4.104;2023-03-05T13:30:18;63.72;;;31.15;;
23586;SDS011;11971;51.148;4.104;2023-03-05T13:32:48;63.60;;;31.25;;
23586;SDS011;11971;51.148;4.104;2023-03-05T13:35:17;62.10;;;30.65;;
23586;SDS011;11971;51.148;4.104;2023-03-05T13:37:45;65.38;;;31.42;;
23586;SDS011;11971;51.148;4.104;2023-03-05T13:40:17;66.65;;;31.88;;
23586;SDS011;11971;51.148;4.104;2023-03-05T13:42:45;67.90;;;31.85;;
23586;SDS011;11971;51.148;4.104;2023-03-05T13:45:19;65.88;;;32.33;;
23586;SDS011;11971;51.148;4.104;2023-03-05T13:47:52;85.22;;;36.55;;
23586;SDS011;11971;51.148;4.104;2023-03-05T13:50:23;66.68;;;32.78;;
23586;SDS011;11971;51.148;4.104;2023-03-05T13:52:51;68.38;;;33.33;;
23586;SDS011;11971;51.148;4.104;2023-03-05T13:55:18;67.28;;;32.72;;
23586;SDS011;11971;51.148;4.104;2023-03-05T13:57:45;66.22;;;32.83;;
23586;SDS011;11971;51.148;4.104;2023-03-05T14:00:24;69.63;;;33.22;;
23586;SDS011;11971;51.148;4.104;2023-03-05T14:02:53;66.93;;;32.60;;
23586;SDS011;11971;51.148;4.104;2023-03-05T14:05:23;65.38;;;31.73;;
23586;SDS011;11971;51.148;4.104;2023-03-05T14:07:50;62.57;;;31.20;;
23586;SDS011;11971;51.148;4.104;2023-03-05T14:10:27;64.78;;;30.95;;
23586;SDS011;11971;51.148;4.104;2023-03-05T14:12:56;63.63;;;31.20;;
23586;SDS011;11971;51.148;4.104;2023-03-05T14:15:23;61.00;;;30.50;;
23586;SDS011;11971;51.148;4.104;2023-03-05T14:17:51;61.80;;;30.00;;
23586;SDS011;11971;51.148;4.104;2023-03-05T14:20:20;59.58;;;29.90;;
23586;SDS011;11971;51.148;4.104;2023-03-05T14:22:51;59.80;;;29.98;;
23586;SDS011;11971;51.148;4.104;2023-03-05T14:25:25;61.20;;;30.52;;
23586;SDS011;11971;51.148;4.104;2023-03-05T14:27:58;60.33;;;30.30;;
23586;SDS011;11971;51.148;4.104;2023-03-05T14:30:25;59.85;;;30.25;;
23586;SDS011;11971;51.148;4.104;2023-03-05T14:35:23;60.75;;;30.75;;
23586;SDS011;11971;51.148;4.104;2023-03-05T14:37:51;67.50;;;32.65;;
23586;SDS011;11971;51.148;4.104;2023-03-05T14:40:21;60.42;;;30.45;;
23586;SDS011;11971;51.148;4.104;2023-03-05T14:45:17;60.15;;;30.25;;
23586;SDS011;11971;51.148;4.104;2023-03-05T14:47:45;60.22;;;30.30;;
23586;SDS011;11971;51.148;4.104;2023-03-05T14:50:14;65.70;;;31.85;;
23586;SDS011;11971;51.148;4.104;2023-03-05T14:52:44;61.53;;;30.85;;
23586;SDS011;11971;51.148;4.104;2023-03-05T14:55:13;61.10;;;30.73;;
23586;SDS011;11971;51.148;4.104;2023-03-05T14:57:40;65.53;;;32.38;;
23586;SDS011;11971;51.148;4.104;2023-03-05T15:00:10;65.10;;;31.83;;